createdAt,value
2022-12-23T00:00:35.324Z,99.4
2022-12-23T00:01:50.631Z,99.5
2022-12-23T00:03:06.919Z,99.5
2022-12-23T00:04:23.213Z,99.4
2022-12-23T00:05:39.494Z,99.3
2022-12-23T00:06:55.791Z,99.4
2022-12-23T00:08:12.097Z,99.3
2022-12-23T00:09:28.387Z,99.3
2022-12-23T00:10:44.675Z,99.1
2022-12-23T00:12:00.975Z,99.2
2022-12-23T00:13:17.260Z,99
2022-12-23T00:14:33.562Z,98.9
2022-12-23T00:15:49.851Z,99
2022-12-23T00:17:06.141Z,99.2
2022-12-23T00:18:21.444Z,99.3
2022-12-23T00:19:37.732Z,99.2
2022-12-23T00:20:54.037Z,99.2
2022-12-23T00:22:10.329Z,99.2
2022-12-23T00:23:26.618Z,99.3
2022-12-23T00:24:42.920Z,99.3
2022-12-23T00:25:59.212Z,99.4
2022-12-23T00:27:15.494Z,99.2
2022-12-23T00:28:31.793Z,99.2
2022-12-23T00:29:48.079Z,99
2022-12-23T00:31:04.377Z,99.2
2022-12-23T00:32:20.665Z,99
2022-12-23T00:33:36.970Z,99.2
2022-12-23T00:34:52.265Z,99.2
2022-12-23T00:36:08.570Z,99.2
2022-12-23T00:37:24.848Z,99.2
2022-12-23T00:38:41.158Z,99.3
2022-12-23T00:39:57.451Z,99.3
2022-12-23T00:41:13.733Z,99.3
2022-12-23T00:42:30.018Z,99.4
2022-12-23T00:43:46.329Z,99.4
2022-12-23T00:45:02.623Z,99.6
2022-12-23T00:46:18.912Z,99.5
2022-12-23T00:47:35.193Z,99.4
2022-12-23T00:48:51.485Z,99.5
2022-12-23T00:50:07.784Z,99.4
2022-12-23T00:51:23.103Z,99.3
2022-12-23T00:52:39.395Z,99.3
2022-12-23T00:53:55.688Z,99.4
2022-12-23T00:55:11.964Z,99.5
2022-12-23T00:56:28.276Z,99.4
2022-12-23T00:57:44.566Z,99.5
2022-12-23T00:59:00.854Z,99.4
2022-12-23T01:00:17.137Z,99.5
2022-12-23T01:01:33.447Z,99.5
2022-12-23T01:02:49.735Z,99.5
2022-12-23T01:04:06.029Z,99.6
2022-12-23T01:05:22.321Z,99.5
2022-12-23T01:06:38.608Z,99.5
2022-12-23T01:07:53.920Z,99.5
2022-12-23T01:09:10.221Z,99.4
2022-12-23T01:10:26.508Z,99.5
2022-12-23T01:11:42.804Z,99.5
2022-12-23T01:12:59.092Z,99.5
2022-12-23T01:14:15.378Z,99.4
2022-12-23T01:15:31.681Z,99.5
2022-12-23T01:16:47.970Z,99.5
2022-12-23T01:18:04.268Z,99.5
2022-12-23T01:19:20.544Z,99.6
2022-12-23T01:20:36.841Z,99.5
2022-12-23T01:21:53.137Z,99.5
2022-12-23T01:23:09.425Z,99.5
2022-12-23T01:24:24.737Z,99.5
2022-12-23T01:25:41.026Z,99.5
2022-12-23T01:26:57.324Z,99.4
2022-12-23T01:28:13.630Z,99.5
2022-12-23T01:29:29.923Z,99.4
2022-12-23T01:30:46.211Z,99.3
2022-12-23T01:32:02.498Z,99.3
2022-12-23T01:33:18.784Z,99.3
2022-12-23T01:34:35.095Z,99.2
2022-12-23T01:35:51.383Z,99.3
2022-12-23T01:37:07.670Z,99.2
2022-12-23T01:38:23.963Z,99.2
2022-12-23T01:39:40.264Z,99.3
2022-12-23T01:40:55.559Z,99.3
2022-12-23T01:42:11.848Z,99.3
2022-12-23T01:43:28.153Z,99.3
2022-12-23T01:44:44.449Z,99.3
2022-12-23T01:46:00.729Z,99.3
2022-12-23T01:47:17.028Z,99.5
2022-12-23T01:48:33.326Z,99.5
2022-12-23T01:49:49.612Z,99.6
2022-12-23T01:51:05.911Z,99.8
2022-12-23T01:52:22.206Z,99.8
2022-12-23T01:53:38.494Z,99.9
2022-12-23T01:54:54.797Z,100
2022-12-23T01:56:11.075Z,100
2022-12-23T01:57:26.399Z,100
2022-12-23T01:58:42.686Z,100
2022-12-23T02:01:15.264Z,100
2022-12-23T02:02:31.561Z,100
2022-12-23T02:03:47.858Z,100
2022-12-23T02:05:04.153Z,100
2022-12-23T02:06:20.448Z,100
2022-12-23T02:07:36.737Z,100
2022-12-23T02:08:53.016Z,100
2022-12-23T02:10:09.314Z,100
2022-12-23T02:11:25.605Z,100
2022-12-23T02:12:41.904Z,100
2022-12-23T02:13:57.215Z,100
2022-12-23T02:15:13.501Z,99.9
2022-12-23T02:16:29.809Z,99.9
2022-12-23T02:17:46.096Z,99.9
2022-12-23T02:19:02.390Z,99.9
2022-12-23T02:20:18.674Z,99.8
2022-12-23T02:21:33.984Z,99.8
2022-12-23T02:22:50.286Z,99.7
2022-12-23T02:24:06.581Z,99.8
2022-12-23T02:25:22.874Z,99.8
2022-12-23T02:26:39.172Z,99.7
2022-12-23T02:27:55.461Z,99.7
2022-12-23T02:29:11.757Z,99.5
2022-12-23T02:30:28.050Z,99.5
2022-12-23T02:31:44.338Z,99.5
2022-12-23T02:33:00.633Z,99.5
2022-12-23T02:34:16.926Z,99.4
2022-12-23T02:35:33.204Z,99.3
2022-12-23T02:36:49.509Z,99.3
2022-12-23T02:38:04.826Z,99.1
2022-12-23T02:39:21.120Z,99
2022-12-23T02:40:37.408Z,99
2022-12-23T02:41:53.704Z,98.9
2022-12-23T02:43:09.985Z,98.8
2022-12-23T02:44:26.290Z,98.8
2022-12-23T02:45:42.564Z,98.9
2022-12-23T02:46:58.869Z,98.8
2022-12-23T02:48:15.165Z,98.8
2022-12-23T02:49:31.458Z,98.8
2022-12-23T02:50:47.749Z,98.7
2022-12-23T02:52:04.035Z,98.8
2022-12-23T02:53:20.332Z,98.8
2022-12-23T02:54:35.639Z,98.9
2022-12-23T02:55:51.931Z,98.9
2022-12-23T02:57:08.217Z,98.8
2022-12-23T02:58:24.515Z,98.7
2022-12-23T02:59:40.812Z,98.6
2022-12-23T03:00:57.109Z,98.7
2022-12-23T03:02:13.402Z,98.7
2022-12-23T03:03:29.687Z,98.7
2022-12-23T03:04:45.975Z,98.7
2022-12-23T03:06:02.281Z,98.6
2022-12-23T03:07:18.575Z,98.7
2022-12-23T03:08:34.867Z,98.8
2022-12-23T03:09:51.155Z,98.8
2022-12-23T03:11:06.469Z,98.8
2022-12-23T03:12:22.754Z,98.9
2022-12-23T03:13:39.042Z,98.9
2022-12-23T03:14:55.346Z,99
2022-12-23T03:16:11.628Z,99
2022-12-23T03:17:27.919Z,99.1
2022-12-23T03:18:44.211Z,99.2
2022-12-23T03:20:00.523Z,99.3
2022-12-23T03:21:16.804Z,99.3
2022-12-23T03:22:33.098Z,99.3
2022-12-23T03:23:49.391Z,99.3
2022-12-23T03:25:05.677Z,99.3
2022-12-23T03:26:21.980Z,99.2
2022-12-23T03:27:37.283Z,99.1
2022-12-23T03:28:53.572Z,99.1
2022-12-23T03:30:09.870Z,99.1
2022-12-23T03:31:26.170Z,99
2022-12-23T03:32:42.450Z,99
2022-12-23T03:33:58.755Z,98.8
2022-12-23T03:35:15.036Z,98.7
2022-12-23T03:36:31.332Z,98.6
2022-12-23T03:37:47.633Z,98.5
2022-12-23T03:39:03.927Z,98.5
2022-12-23T03:40:20.217Z,98.5
2022-12-23T03:41:36.502Z,98.5
2022-12-23T03:42:52.804Z,98.3
2022-12-23T03:44:08.100Z,98.3
2022-12-23T03:45:24.398Z,98.2
2022-12-23T03:46:40.706Z,98.2
2022-12-23T03:47:56.985Z,98
2022-12-23T03:49:13.283Z,97.9
2022-12-23T03:50:29.567Z,97.7
2022-12-23T03:51:45.862Z,97.5
2022-12-23T03:53:02.166Z,97.4
2022-12-23T03:54:18.456Z,97.4
2022-12-23T03:55:34.752Z,97.2
2022-12-23T03:56:51.041Z,97.2
2022-12-23T03:58:07.326Z,97.3
2022-12-23T03:59:23.625Z,97.3
2022-12-23T04:00:38.939Z,97.3
2022-12-23T04:01:55.221Z,97.1
2022-12-23T04:03:11.523Z,97
2022-12-23T04:04:27.820Z,96.9
2022-12-23T04:05:44.104Z,96.9
2022-12-23T04:07:00.396Z,96.9
2022-12-23T04:08:16.696Z,96.8
2022-12-23T04:09:32.983Z,96.9
2022-12-23T04:10:49.286Z,96.7
2022-12-23T04:12:05.566Z,96.7
2022-12-23T04:13:21.864Z,96.7
2022-12-23T04:14:38.157Z,96.8
2022-12-23T04:15:54.453Z,96.6
2022-12-23T04:17:09.759Z,96.6
2022-12-23T04:18:26.056Z,96.5
2022-12-23T04:19:42.351Z,96.4
2022-12-23T04:20:58.638Z,96.5
2022-12-23T04:22:14.939Z,96.5
2022-12-23T04:23:31.231Z,96.2
2022-12-23T04:24:47.520Z,96.2
2022-12-23T04:26:03.809Z,96
2022-12-23T04:27:20.103Z,96
2022-12-23T04:28:36.397Z,95.8
2022-12-23T04:29:52.692Z,95.8
2022-12-23T04:31:08.968Z,95.8
2022-12-23T04:32:25.278Z,95.8
2022-12-23T04:33:40.590Z,95.8
2022-12-23T04:34:56.869Z,95.8
2022-12-23T04:36:13.170Z,95.5
2022-12-23T04:37:29.459Z,95.5
2022-12-23T04:38:45.756Z,95.4
2022-12-23T04:40:02.051Z,95.5
2022-12-23T04:41:18.343Z,95.5
2022-12-23T04:42:34.624Z,95.5
2022-12-23T04:43:50.000Z,95.5
2022-12-23T04:45:07.213Z,95.6
2022-12-23T04:46:23.514Z,95.8
2022-12-23T04:47:39.797Z,96
2022-12-23T04:48:56.088Z,96
2022-12-23T04:50:11.397Z,96.2
2022-12-23T04:51:27.707Z,96.4
2022-12-23T04:52:43.986Z,96.6
2022-12-23T04:54:00.274Z,96.7
2022-12-23T04:55:16.569Z,97
2022-12-23T04:56:32.865Z,97.2
2022-12-23T04:57:49.159Z,97.3
2022-12-23T04:59:05.459Z,97.3
2022-12-23T05:00:21.738Z,97.5
2022-12-23T05:01:38.047Z,97.7
2022-12-23T05:02:54.341Z,97.8
2022-12-23T05:04:10.633Z,97.9
2022-12-23T05:05:26.923Z,98
2022-12-23T05:06:42.224Z,98
2022-12-23T05:07:58.522Z,98
2022-12-23T05:09:14.815Z,98.1
2022-12-23T05:10:31.100Z,98.2
2022-12-23T05:11:47.407Z,98.1
2022-12-23T05:13:03.700Z,98.1
2022-12-23T05:14:19.976Z,98.1
2022-12-23T05:15:36.286Z,97.9
2022-12-23T05:16:52.568Z,97.6
2022-12-23T05:18:08.867Z,97.7
2022-12-23T05:19:25.152Z,97.7
2022-12-23T05:20:41.444Z,97.6
2022-12-23T05:21:57.734Z,97.5
2022-12-23T05:23:13.060Z,97.6
2022-12-23T05:24:29.355Z,97.6
2022-12-23T05:25:45.633Z,97.5
2022-12-23T05:27:01.930Z,97.5
2022-12-23T05:28:18.228Z,97.4
2022-12-23T05:29:34.510Z,97.3
2022-12-23T05:30:50.801Z,97.3
2022-12-23T05:32:07.108Z,97.3
2022-12-23T05:33:23.397Z,97.2
2022-12-23T05:34:39.688Z,97.4
2022-12-23T05:35:55.975Z,97.4
2022-12-23T05:37:12.267Z,97.2
2022-12-23T05:38:28.576Z,97.1
2022-12-23T05:39:43.877Z,97
2022-12-23T05:41:00.171Z,97.2
2022-12-23T05:42:16.452Z,97.1
2022-12-23T05:43:32.753Z,97
2022-12-23T05:44:49.049Z,97
2022-12-23T05:46:05.332Z,97
2022-12-23T05:47:21.626Z,96.9
2022-12-23T05:48:37.925Z,96.9
2022-12-23T05:49:54.220Z,97
2022-12-23T05:51:10.506Z,97
2022-12-23T05:52:26.815Z,97
2022-12-23T05:53:43.093Z,97
2022-12-23T05:54:59.398Z,97
2022-12-23T05:56:14.692Z,96.8
2022-12-23T05:57:30.996Z,96.9
2022-12-23T05:58:47.292Z,96.9
2022-12-23T06:00:03.585Z,96.7
2022-12-23T06:01:19.867Z,96.7
2022-12-23T06:02:36.159Z,96.8
2022-12-23T06:03:52.453Z,96.5
2022-12-23T06:05:08.749Z,96.5
2022-12-23T06:06:25.041Z,96.5
2022-12-23T06:07:41.335Z,96.4
2022-12-23T06:08:57.623Z,96.5
2022-12-23T06:10:13.912Z,96.3
2022-12-23T06:11:30.206Z,96.3
2022-12-23T06:12:45.519Z,96.3
2022-12-23T06:14:01.820Z,96.3
2022-12-23T06:15:18.100Z,96.3
2022-12-23T06:16:34.400Z,96.2
2022-12-23T06:17:50.702Z,96.1
2022-12-23T06:19:06.986Z,96.3
2022-12-23T06:20:23.291Z,96.1
2022-12-23T06:21:39.580Z,96.1
2022-12-23T06:22:55.871Z,96.1
2022-12-23T06:24:12.155Z,96
2022-12-23T06:25:28.449Z,96
2022-12-23T06:26:44.744Z,95.9
2022-12-23T06:28:01.037Z,95.8
2022-12-23T06:29:16.354Z,95.8
2022-12-23T06:30:32.634Z,95.7
2022-12-23T06:31:48.941Z,95.8
2022-12-23T06:33:05.216Z,95.6
2022-12-23T06:34:21.509Z,95.7
2022-12-23T06:35:37.805Z,95.7
2022-12-23T06:36:53.116Z,95.8
2022-12-23T06:38:09.423Z,95.7
2022-12-23T06:39:25.713Z,95.5
2022-12-23T06:40:42.008Z,95.6
2022-12-23T06:41:58.307Z,95.6
2022-12-23T06:43:14.589Z,95.5
2022-12-23T06:44:30.824Z,95.4
2022-12-23T06:45:47.116Z,95.5
2022-12-23T06:47:03.364Z,95.4
2022-12-23T06:48:19.602Z,95.3
2022-12-23T06:49:35.856Z,95.3
2022-12-23T06:50:52.149Z,95.3
2022-12-23T06:52:08.446Z,95.2
2022-12-23T06:53:23.709Z,95
2022-12-23T06:54:39.951Z,95
2022-12-23T06:55:56.176Z,95
2022-12-23T06:57:12.466Z,94.8
2022-12-23T06:58:28.714Z,94.8
2022-12-23T06:59:44.959Z,94.7
2022-12-23T07:01:01.195Z,94.5
2022-12-23T07:02:17.447Z,94.6
2022-12-23T07:03:33.683Z,94.5
2022-12-23T07:04:49.909Z,94.7
2022-12-23T07:06:06.165Z,94.6
2022-12-23T07:07:22.404Z,94.6
2022-12-23T07:08:38.624Z,94.4
2022-12-23T07:09:53.890Z,94.4
2022-12-23T07:11:10.134Z,94.4
2022-12-23T07:12:26.357Z,94.4
2022-12-23T07:13:42.610Z,94.4
2022-12-23T07:14:58.852Z,94.5
2022-12-23T07:16:15.076Z,94.5
2022-12-23T07:17:31.320Z,94.5
2022-12-23T07:18:47.562Z,94.4
2022-12-23T07:20:03.810Z,94.6
2022-12-23T07:21:20.044Z,94.6
2022-12-23T07:22:36.269Z,94.3
2022-12-23T07:23:52.506Z,94.4
2022-12-23T07:25:08.747Z,94.3
2022-12-23T07:26:24.009Z,94.3
2022-12-23T07:27:40.256Z,94.3
2022-12-23T07:28:56.483Z,94.2
2022-12-23T07:30:12.719Z,94.3
2022-12-23T07:31:28.965Z,94.4
2022-12-23T07:32:45.201Z,94.4
2022-12-23T07:34:01.443Z,94.5
2022-12-23T07:35:17.681Z,94.6
2022-12-23T07:36:33.923Z,94.8
2022-12-23T07:37:50.170Z,94.8
2022-12-23T07:39:06.408Z,94.8
2022-12-23T07:40:22.646Z,95
2022-12-23T07:41:38.870Z,95
2022-12-23T07:42:54.139Z,95
2022-12-23T07:44:10.368Z,95
2022-12-23T07:45:26.616Z,95
2022-12-23T07:46:42.841Z,94.8
2022-12-23T07:47:59.000Z,94.8
2022-12-23T07:49:15.324Z,94.7
2022-12-23T07:50:31.563Z,94.6
2022-12-23T07:51:47.797Z,94.6
2022-12-23T07:53:04.050Z,94.7
2022-12-23T07:54:20.278Z,94.6
2022-12-23T07:55:36.515Z,94.6
2022-12-23T07:56:52.769Z,94.7
2022-12-23T07:58:09.008Z,94.7
2022-12-23T07:59:24.255Z,94.7
2022-12-23T08:00:40.490Z,94.7
2022-12-23T08:01:56.727Z,94.7
2022-12-23T08:03:12.959Z,94.6
2022-12-23T08:04:29.176Z,94.6
2022-12-23T08:05:45.403Z,94.6
2022-12-23T08:07:01.649Z,94.5
2022-12-23T08:08:17.878Z,94.6
2022-12-23T08:09:34.132Z,94.5
2022-12-23T08:10:50.360Z,94.5
2022-12-23T08:12:06.603Z,94.5
2022-12-23T08:13:22.837Z,94.4
2022-12-23T08:14:39.082Z,94.4
2022-12-23T08:15:54.336Z,94.4
2022-12-23T08:17:10.576Z,94.4
2022-12-23T08:18:26.802Z,94.4
2022-12-23T08:19:43.052Z,94.5
2022-12-23T08:20:59.293Z,94.6
2022-12-23T08:22:15.531Z,94.6
2022-12-23T08:23:31.767Z,94.7
2022-12-23T08:24:48.010Z,94.7
2022-12-23T08:26:04.237Z,94.7
2022-12-23T08:27:20.473Z,94.6
2022-12-23T08:28:36.717Z,94.5
2022-12-23T08:29:52.964Z,94.5
2022-12-23T08:31:09.196Z,94.6
2022-12-23T08:32:24.454Z,94.4
2022-12-23T08:33:40.689Z,94.3
2022-12-23T08:34:56.941Z,94.3
2022-12-23T08:36:13.174Z,94.3
2022-12-23T08:37:29.416Z,94.3
2022-12-23T08:38:45.642Z,94.3
2022-12-23T08:40:01.882Z,94
2022-12-23T08:41:18.118Z,94
2022-12-23T08:42:34.360Z,94
2022-12-23T08:43:50.602Z,93.8
2022-12-23T08:45:06.847Z,93.8
2022-12-23T08:46:23.089Z,93.8
2022-12-23T08:47:39.313Z,93.8
2022-12-23T08:48:54.566Z,93.6
2022-12-23T08:50:10.822Z,93.5
2022-12-23T08:51:27.044Z,93.6
2022-12-23T08:52:43.299Z,93.4
2022-12-23T08:53:59.525Z,93.5
2022-12-23T08:55:15.769Z,93.2
2022-12-23T08:56:32.010Z,93.4
2022-12-23T08:57:48.255Z,93.2
2022-12-23T08:59:04.482Z,93.2
2022-12-23T09:00:20.716Z,93.1
2022-12-23T09:01:36.971Z,93
2022-12-23T09:02:53.198Z,93.1
2022-12-23T09:04:09.433Z,93
2022-12-23T09:05:24.706Z,92.9
2022-12-23T09:06:40.936Z,92.8
2022-12-23T09:07:57.168Z,92.7
2022-12-23T09:09:13.406Z,92.7
2022-12-23T09:10:29.656Z,92.5
2022-12-23T09:11:45.899Z,92.7
2022-12-23T09:13:02.124Z,92.4
2022-12-23T09:14:18.363Z,92.4
2022-12-23T09:15:34.598Z,92.3
2022-12-23T09:16:50.839Z,92.2
2022-12-23T09:18:07.088Z,92.2
2022-12-23T09:19:23.325Z,92.3
2022-12-23T09:20:39.572Z,92.2
2022-12-23T09:21:54.811Z,92.2
2022-12-23T09:23:11.053Z,92.3
2022-12-23T09:24:27.286Z,92.5
2022-12-23T09:25:43.539Z,92.4
2022-12-23T09:26:59.765Z,92.3
2022-12-23T09:28:16.016Z,92.3
2022-12-23T09:29:32.258Z,92.3
2022-12-23T09:30:48.487Z,92
2022-12-23T09:32:04.724Z,92.1
2022-12-23T09:33:20.958Z,92.2
2022-12-23T09:35:53.439Z,92.1
2022-12-23T09:37:09.679Z,92.4
2022-12-23T09:38:24.942Z,92.2
2022-12-23T09:39:41.178Z,92.2
2022-12-23T09:40:57.406Z,92
2022-12-23T09:42:13.645Z,91.8
2022-12-23T09:43:29.884Z,91.3
2022-12-23T09:44:46.124Z,91.4
2022-12-23T09:46:02.365Z,91.2
2022-12-23T09:47:18.612Z,91
2022-12-23T09:48:34.856Z,91
2022-12-23T09:49:51.092Z,90.9
2022-12-23T09:51:07.332Z,90.7
2022-12-23T09:52:23.576Z,90.6
2022-12-23T09:53:39.803Z,90.5
2022-12-23T09:54:55.056Z,90.3
2022-12-23T09:56:11.298Z,90.5
2022-12-23T09:57:27.544Z,90.9
2022-12-23T09:58:43.771Z,90.7
2022-12-23T10:00:00.009Z,90.7
2022-12-23T10:01:16.252Z,90.4
2022-12-23T10:02:32.490Z,90.3
2022-12-23T10:03:48.733Z,90.8
2022-12-23T10:05:04.964Z,90.5
2022-12-23T10:06:21.214Z,90.6
2022-12-23T10:07:37.449Z,90.3
2022-12-23T10:08:53.686Z,90.2
2022-12-23T10:10:09.932Z,90.3
2022-12-23T10:11:25.167Z,90.2
2022-12-23T10:12:41.409Z,90.3
2022-12-23T10:13:57.653Z,90.3
2022-12-23T10:15:13.893Z,90.6
2022-12-23T10:16:30.140Z,90.3
2022-12-23T10:17:46.363Z,90.1
2022-12-23T10:19:02.613Z,90.2
2022-12-23T10:20:18.837Z,90.4
2022-12-23T10:21:35.097Z,90.4
2022-12-23T10:22:51.334Z,90.5
2022-12-23T10:24:07.563Z,90.3
2022-12-23T10:25:23.793Z,90.3
2022-12-23T10:26:40.038Z,90.5
2022-12-23T10:27:55.293Z,90.3
2022-12-23T10:29:11.544Z,90.2
2022-12-23T10:30:27.784Z,90.3
2022-12-23T10:31:44.009Z,90.3
2022-12-23T10:33:00.252Z,90.2
2022-12-23T10:34:16.486Z,90.5
2022-12-23T10:35:32.723Z,90.5
2022-12-23T10:36:48.975Z,90.4
2022-12-23T10:38:05.213Z,90.6
2022-12-23T10:39:21.450Z,90.6
2022-12-23T10:40:37.689Z,90.9
2022-12-23T10:41:53.925Z,90.7
2022-12-23T10:43:10.163Z,90.8
2022-12-23T10:44:25.421Z,90.5
2022-12-23T10:45:41.648Z,90.7
2022-12-23T10:46:57.894Z,90.8
2022-12-23T10:48:14.135Z,90.9
2022-12-23T10:49:30.375Z,90.5
2022-12-23T10:50:46.611Z,90.3
2022-12-23T10:52:01.876Z,90.6
2022-12-23T10:53:18.103Z,90.3
2022-12-23T10:54:34.000Z,90.3
2022-12-23T10:55:50.578Z,90.2
2022-12-23T10:57:06.828Z,90.3
2022-12-23T10:58:23.073Z,89.6
2022-12-23T10:59:39.305Z,89.5
2022-12-23T11:00:55.551Z,89.1
2022-12-23T11:02:11.786Z,89.6
2022-12-23T11:03:28.011Z,89.5
2022-12-23T11:04:44.262Z,89.5
2022-12-23T11:06:00.489Z,89.7
2022-12-23T11:07:16.726Z,89.2
2022-12-23T11:08:31.995Z,89.4
2022-12-23T11:09:48.228Z,89.8
2022-12-23T11:11:04.465Z,89.5
2022-12-23T11:12:20.700Z,89.5
2022-12-23T11:13:36.952Z,89.4
2022-12-23T11:14:53.191Z,89.5
2022-12-23T11:16:09.434Z,89.4
2022-12-23T11:17:25.659Z,89.3
2022-12-23T11:18:41.900Z,89
2022-12-23T11:19:58.132Z,89.1
2022-12-23T11:21:14.387Z,88.5
2022-12-23T11:22:30.609Z,88.8
2022-12-23T11:23:46.851Z,88.4
2022-12-23T11:25:02.117Z,89
2022-12-23T11:26:18.357Z,89
2022-12-23T11:27:34.584Z,89.1
2022-12-23T11:28:50.829Z,89.2
2022-12-23T11:30:07.075Z,89.4
2022-12-23T11:31:23.314Z,89.2
2022-12-23T11:32:39.536Z,89.4
2022-12-23T11:33:55.786Z,89.1
2022-12-23T11:35:12.020Z,89.4
2022-12-23T11:36:28.270Z,89.5
2022-12-23T11:37:44.490Z,89.4
2022-12-23T11:39:00.734Z,89.9
2022-12-23T11:40:16.986Z,90
2022-12-23T11:41:32.231Z,90
2022-12-23T11:42:48.477Z,90.4
2022-12-23T11:44:04.712Z,89.7
2022-12-23T11:45:20.956Z,89.3
2022-12-23T11:46:37.183Z,89.5
2022-12-23T11:47:53.420Z,89.4
2022-12-23T11:49:09.655Z,89.3
2022-12-23T11:50:25.905Z,89.4
2022-12-23T11:51:42.149Z,89
2022-12-23T11:52:58.376Z,88.8
2022-12-23T11:54:14.616Z,88.8
2022-12-23T11:55:30.857Z,89
2022-12-23T11:56:47.101Z,89
2022-12-23T11:58:02.356Z,88.8
2022-12-23T11:59:18.588Z,89.1
2022-12-23T12:00:34.839Z,89.6
2022-12-23T12:01:51.076Z,89.3
2022-12-23T12:03:07.301Z,89.3
2022-12-23T12:04:23.554Z,88.8
2022-12-23T12:05:39.790Z,88.4
2022-12-23T12:06:56.021Z,88.4
2022-12-23T12:08:12.261Z,88.3
2022-12-23T12:09:28.506Z,88.4
2022-12-23T12:10:44.734Z,88.8
2022-12-23T12:12:00.982Z,89
2022-12-23T12:13:17.207Z,88.2
2022-12-23T12:14:32.475Z,88.4
2022-12-23T12:15:48.720Z,88.7
2022-12-23T12:17:04.942Z,88.3
2022-12-23T12:18:21.192Z,88.1
2022-12-23T12:19:37.431Z,88.2
2022-12-23T12:20:53.660Z,88.2
2022-12-23T12:22:09.905Z,88.4
2022-12-23T12:23:26.148Z,88.4
2022-12-23T12:24:42.389Z,88.3
2022-12-23T12:25:58.628Z,88.5
2022-12-23T12:27:14.859Z,88.8
2022-12-23T12:28:31.102Z,88.3
2022-12-23T12:29:47.330Z,88.3
2022-12-23T12:31:02.591Z,88.5
2022-12-23T12:32:18.827Z,88.8
2022-12-23T12:33:35.067Z,88.4
2022-12-23T12:34:51.297Z,88.8
2022-12-23T12:36:07.555Z,88.8
2022-12-23T12:37:23.774Z,88.5
2022-12-23T12:38:40.021Z,88.6
2022-12-23T12:39:56.259Z,89
2022-12-23T12:41:12.499Z,88.9
2022-12-23T12:42:28.742Z,88.8
2022-12-23T12:43:44.979Z,88.8
2022-12-23T12:45:01.221Z,88.1
2022-12-23T12:46:17.449Z,88.2
2022-12-23T12:47:32.704Z,88.4
2022-12-23T12:48:48.941Z,88.6
2022-12-23T12:50:05.187Z,88.4
2022-12-23T12:51:21.434Z,88.4
2022-12-23T12:52:37.660Z,88.6
2022-12-23T12:53:53.914Z,88.8
2022-12-23T12:55:10.148Z,89
2022-12-23T12:56:26.385Z,89.5
2022-12-23T12:57:42.620Z,89.5
2022-12-23T12:58:58.856Z,89.5
2022-12-23T13:00:15.089Z,89.2
2022-12-23T13:01:31.334Z,89.2
2022-12-23T13:02:47.582Z,89.7
2022-12-23T13:04:02.825Z,89.5
2022-12-23T13:05:19.070Z,89.7
2022-12-23T13:06:35.310Z,89.8
2022-12-23T13:07:51.536Z,90.3
2022-12-23T13:09:07.783Z,90.3
2022-12-23T13:10:24.012Z,90.4
2022-12-23T13:11:40.255Z,90.2
2022-12-23T13:12:56.505Z,90.6
2022-12-23T13:14:12.737Z,90.4
2022-12-23T13:15:28.980Z,90.3
2022-12-23T13:16:45.219Z,90.5
2022-12-23T13:18:01.466Z,90.7
2022-12-23T13:19:17.685Z,90.8
2022-12-23T13:20:32.941Z,90.7
2022-12-23T13:21:49.179Z,91
2022-12-23T13:23:05.427Z,90.6
2022-12-23T13:24:21.672Z,90.7
2022-12-23T13:25:37.898Z,90.4
2022-12-23T13:26:54.144Z,90.4
2022-12-23T13:28:10.376Z,90.4
2022-12-23T13:29:26.622Z,90.5
2022-12-23T13:30:42.863Z,90.5
2022-12-23T13:31:59.108Z,90.5
2022-12-23T13:33:15.341Z,90.5
2022-12-23T13:34:31.578Z,90.4
2022-12-23T13:35:47.809Z,90.5
2022-12-23T13:37:03.076Z,90.4
2022-12-23T13:38:19.307Z,90.4
2022-12-23T13:39:35.537Z,90.2
2022-12-23T13:40:51.779Z,90.1
2022-12-23T13:42:08.031Z,90
2022-12-23T13:43:24.254Z,89.9
2022-12-23T13:44:40.509Z,90
2022-12-23T13:45:56.739Z,89.8
2022-12-23T13:47:12.979Z,90.2
2022-12-23T13:48:29.211Z,90.1
2022-12-23T13:49:45.458Z,90
2022-12-23T13:51:01.704Z,89.9
2022-12-23T13:52:17.929Z,89.8
2022-12-23T13:53:33.197Z,89.9
2022-12-23T13:54:49.436Z,89.6
2022-12-23T13:56:05.662Z,89.6
2022-12-23T13:57:21.894Z,89.6
2022-12-23T13:58:38.149Z,89.7
2022-12-23T13:59:54.377Z,89.8
2022-12-23T14:01:10.627Z,90
2022-12-23T14:02:26.852Z,89.8
2022-12-23T14:03:43.098Z,89.8
2022-12-23T14:04:59.335Z,90
2022-12-23T14:06:15.577Z,90.3
2022-12-23T14:07:31.805Z,90.3
2022-12-23T14:08:48.051Z,90.3
2022-12-23T14:10:03.307Z,90.3
2022-12-23T14:11:19.554Z,90.5
2022-12-23T14:12:35.781Z,90.1
2022-12-23T14:13:52.025Z,90.5
2022-12-23T14:15:08.272Z,90.5
2022-12-23T14:16:24.511Z,90.9
2022-12-23T14:17:40.737Z,90.5
2022-12-23T14:18:56.970Z,90.7
2022-12-23T14:20:13.209Z,90.8
2022-12-23T14:21:29.448Z,91.2
2022-12-23T14:22:45.694Z,91.4
2022-12-23T14:24:01.925Z,91.7
2022-12-23T14:25:18.170Z,91.9
2022-12-23T14:26:33.432Z,92
2022-12-23T14:27:49.673Z,92
2022-12-23T14:29:05.905Z,92.1
2022-12-23T14:30:22.153Z,92.2
2022-12-23T14:31:38.390Z,92.2
2022-12-23T14:32:54.614Z,92.2
2022-12-23T14:34:10.853Z,92.3
2022-12-23T14:35:27.105Z,92.5
2022-12-23T14:36:43.337Z,92.3
2022-12-23T14:37:59.585Z,92.6
2022-12-23T14:39:15.825Z,93.3
2022-12-23T14:40:32.053Z,93.8
2022-12-23T14:41:48.283Z,94
2022-12-23T14:43:03.548Z,94.3
2022-12-23T14:44:19.781Z,94.5
2022-12-23T14:45:36.029Z,94.6
2022-12-23T14:46:52.260Z,94.8
2022-12-23T14:48:08.511Z,95
2022-12-23T14:49:24.734Z,95
2022-12-23T14:50:40.976Z,95.1
2022-12-23T14:51:57.227Z,95.3
2022-12-23T14:53:13.456Z,95.5
2022-12-23T14:54:29.695Z,95.5
2022-12-23T14:55:45.926Z,95.7
2022-12-23T14:57:02.181Z,95.7
2022-12-23T14:58:18.416Z,95.5
2022-12-23T14:59:33.670Z,95.6
2022-12-23T15:00:49.898Z,95.6
2022-12-23T15:02:06.140Z,95.7
2022-12-23T15:03:22.390Z,95.7
2022-12-23T15:04:38.632Z,95.8
2022-12-23T15:05:54.852Z,95.8
2022-12-23T15:07:10.122Z,95.9
2022-12-23T15:08:26.355Z,95.8
2022-12-23T15:09:42.606Z,95.7
2022-12-23T15:10:58.847Z,95.8
2022-12-23T15:12:15.066Z,95.9
2022-12-23T15:13:31.316Z,96
2022-12-23T15:14:47.557Z,96.1
2022-12-23T15:16:03.795Z,96.2
2022-12-23T15:17:20.030Z,96.3
2022-12-23T15:18:36.279Z,96.5
2022-12-23T15:19:52.510Z,96.7
2022-12-23T15:21:08.750Z,96.7
2022-12-23T15:22:24.990Z,96.8
2022-12-23T15:23:40.245Z,97
2022-12-23T15:24:56.489Z,97
2022-12-23T15:26:12.718Z,97.2
2022-12-23T15:27:28.961Z,97.1
2022-12-23T15:28:45.204Z,97.2
2022-12-23T15:30:01.435Z,97.3
2022-12-23T15:31:17.737Z,97.4
2022-12-23T15:32:34.011Z,97.4
2022-12-23T15:33:50.325Z,97.4
2022-12-23T15:35:06.613Z,97.4
2022-12-23T15:36:22.894Z,97.5
2022-12-23T15:37:39.196Z,97.6
2022-12-23T15:38:55.477Z,97.5
2022-12-23T15:40:10.794Z,97.5
2022-12-23T15:41:27.082Z,97.5
2022-12-23T15:42:43.385Z,97.6
2022-12-23T15:43:59.661Z,97.7
2022-12-23T15:45:15.967Z,97.7
2022-12-23T15:46:32.250Z,97.8
2022-12-23T15:47:48.546Z,97.8
2022-12-23T15:49:04.845Z,98
2022-12-23T15:50:21.139Z,98
2022-12-23T15:51:37.431Z,98.2
2022-12-23T15:52:53.718Z,98.3
2022-12-23T15:54:10.022Z,98.3
2022-12-23T15:55:26.305Z,98.3
2022-12-23T15:56:41.621Z,98.3
2022-12-23T15:57:57.910Z,98.5
2022-12-23T15:59:14.195Z,98.5
2022-12-23T16:00:30.503Z,98.5
2022-12-23T16:01:46.784Z,98.3
2022-12-23T16:03:03.080Z,98.5
2022-12-23T16:04:19.366Z,98.5
2022-12-23T16:05:35.668Z,98.6
2022-12-23T16:06:51.965Z,98.6
2022-12-23T16:09:24.547Z,98.6
2022-12-23T16:10:40.842Z,98.6
2022-12-23T16:11:57.139Z,98.6
2022-12-23T16:13:12.445Z,98.7
2022-12-23T16:14:28.740Z,98.8
2022-12-23T16:15:45.023Z,98.9
2022-12-23T16:17:01.318Z,98.9
2022-12-23T16:18:17.618Z,98.9
2022-12-23T16:19:33.906Z,98.9
2022-12-23T16:20:50.191Z,98.9
2022-12-23T16:22:06.494Z,98.9
2022-12-23T16:23:22.784Z,99
2022-12-23T16:24:39.075Z,98.9
2022-12-23T16:25:55.371Z,98.9
2022-12-23T16:27:11.669Z,98.9
2022-12-23T16:28:27.955Z,99
2022-12-23T16:29:43.257Z,99.2
2022-12-23T16:30:59.558Z,99.3
2022-12-23T16:32:15.837Z,99.5
2022-12-23T16:33:32.146Z,99.6
2022-12-23T16:34:48.422Z,99.9
2022-12-23T16:36:04.732Z,100
2022-12-23T16:37:21.026Z,100
2022-12-23T16:38:37.312Z,100
2022-12-23T16:39:53.612Z,100
2022-12-23T16:41:09.897Z,100
2022-12-23T16:42:26.181Z,100
2022-12-23T16:43:42.472Z,100
2022-12-23T16:44:58.776Z,100
2022-12-23T16:46:14.075Z,100
2022-12-23T16:47:30.377Z,100
2022-12-23T16:48:46.677Z,100
2022-12-23T16:50:02.963Z,100
2022-12-23T16:51:19.249Z,100
2022-12-23T16:52:35.544Z,100
2022-12-23T16:53:51.840Z,100
2022-12-23T16:55:08.125Z,100
2022-12-23T16:56:24.428Z,100
2022-12-23T16:57:40.724Z,100
2022-12-23T16:58:57.008Z,100
2022-12-23T17:00:13.298Z,100
2022-12-23T17:01:29.607Z,100
2022-12-23T17:02:44.896Z,100
2022-12-23T17:04:01.210Z,100
2022-12-23T17:05:17.496Z,100